sensor_id;sensor_type;location;lat;lon;timestamp;pressure;altitude;pressure_sealevel;temperature;humidity
71344;BME280;59146;43.850;25.948;2023-09-19T00:00:19;101474.41;;;19.35;68.92
71344;BME280;59146;43.850;25.948;2023-09-19T00:02:55;101477.75;;;19.37;69.61
71344;BME280;59146;43.850;25.948;2023-09-19T00:05:25;101471.94;;;19.32;69.29
71344;BME280;59146;43.850;25.948;2023-09-19T00:07:54;101477.38;;;19.30;68.48
71344;BME280;59146;43.850;25.948;2023-09-19T00:10:22;101473.19;;;19.17;68.79
71344;BME280;59146;43.850;25.948;2023-09-19T00:12:50;101419.72;;;18.80;68.37
71344;BME280;59146;43.850;25.948;2023-09-19T00:15:17;101427.53;;;18.81;68.85
71344;BME280;59146;43.850;25.948;2023-09-19T00:17:43;101477.19;;;19.11;70.01
71344;BME280;59146;43.850;25.948;2023-09-19T00:20:09;101412.06;;;18.66;70.17
71344;BME280;59146;43.850;25.948;2023-09-19T00:22:41;101464.09;;;18.87;69.21
71344;BME280;59146;43.850;25.948;2023-09-19T00:25:11;101460.50;;;18.77;70.22
71344;BME280;59146;43.850;25.948;2023-09-19T00:27:38;101492.84;;;18.92;70.56
71344;BME280;59146;43.850;25.948;2023-09-19T00:30:11;101472.19;;;18.75;71.28
71344;BME280;59146;43.850;25.948;2023-09-19T00:32:42;101434.16;;;18.43;72.18
71344;BME280;59146;43.850;25.948;2023-09-19T00:35:08;101431.28;;;18.23;72.42
71344;BME280;59146;43.850;25.948;2023-09-19T00:37:36;101447.00;;;18.14;72.29
71344;BME280;59146;43.850;25.948;2023-09-19T00:40:03;101475.72;;;18.18;71.43
71344;BME280;59146;43.850;25.948;2023-09-19T00:42:31;101443.00;;;17.86;72.90
71344;BME280;59146;43.850;25.948;2023-09-19T00:44:56;101464.53;;;17.93;73.18
71344;BME280;59146;43.850;25.948;2023-09-19T00:47:22;101488.22;;;18.16;72.21
71344;BME280;59146;43.850;25.948;2023-09-19T00:49:48;101467.31;;;18.02;72.78
71344;BME280;59146;43.850;25.948;2023-09-19T00:52:18;101435.72;;;17.66;73.39
71344;BME280;59146;43.850;25.948;2023-09-19T00:54:47;101458.59;;;17.89;73.36
71344;BME280;59146;43.850;25.948;2023-09-19T00:57:14;101412.53;;;17.59;73.39
71344;BME280;59146;43.850;25.948;2023-09-19T00:59:44;101413.59;;;17.56;73.90
71344;BME280;59146;43.850;25.948;2023-09-19T01:02:10;101429.50;;;17.67;73.24
71344;BME280;59146;43.850;25.948;2023-09-19T01:04:37;101474.72;;;17.97;71.99
71344;BME280;59146;43.850;25.948;2023-09-19T01:07:03;101407.41;;;17.44;71.44
71344;BME280;59146;43.850;25.948;2023-09-19T01:09:29;101400.97;;;17.25;71.17
71344;BME280;59146;43.850;25.948;2023-09-19T01:11:58;101458.38;;;17.58;71.15
71344;BME280;59146;43.850;25.948;2023-09-19T01:14:36;101392.56;;;16.96;71.99
71344;BME280;59146;43.850;25.948;2023-09-19T01:17:07;101447.38;;;17.16;72.73
71344;BME280;59146;43.850;25.948;2023-09-19T01:30:46;101402.25;;;16.96;72.33
71344;BME280;59146;43.850;25.948;2023-09-19T01:33:12;101443.94;;;17.27;72.12
71344;BME280;59146;43.850;25.948;2023-09-19T01:35:40;101395.97;;;17.09;71.98
71344;BME280;59146;43.850;25.948;2023-09-19T01:38:06;101461.44;;;17.40;71.98
71344;BME280;59146;43.850;25.948;2023-09-19T01:40:48;101445.41;;;17.31;72.12
71344;BME280;59146;43.850;25.948;2023-09-19T01:43:27;101435.84;;;17.41;71.51
71344;BME280;59146;43.850;25.948;2023-09-19T01:46:14;101456.31;;;17.50;71.64
71344;BME280;59146;43.850;25.948;2023-09-19T01:48:59;101398.53;;;17.22;71.69
71344;BME280;59146;43.850;25.948;2023-09-19T01:51:41;101371.31;;;16.98;71.76
71344;BME280;59146;43.850;25.948;2023-09-19T01:54:10;101408.56;;;17.29;71.56
71344;BME280;59146;43.850;25.948;2023-09-19T01:56:48;101397.72;;;17.21;71.66
71344;BME280;59146;43.850;25.948;2023-09-19T01:59:21;101415.91;;;17.37;71.72
71344;BME280;59146;43.850;25.948;2023-09-19T02:01:48;101420.44;;;17.35;71.58
71344;BME280;59146;43.850;25.948;2023-09-19T02:04:15;101379.91;;;17.12;71.27
71344;BME280;59146;43.850;25.948;2023-09-19T02:06:43;101442.56;;;17.45;71.85
71344;BME280;59146;43.850;25.948;2023-09-19T02:09:08;101379.75;;;17.03;77.16
71344;BME280;59146;43.850;25.948;2023-09-19T02:11:36;101386.63;;;16.93;80.61
71344;BME280;59146;43.850;25.948;2023-09-19T02:14:02;101389.63;;;16.88;81.18
71344;BME280;59146;43.850;25.948;2023-09-19T02:16:28;101389.69;;;16.76;81.87
71344;BME280;59146;43.850;25.948;2023-09-19T02:18:54;101367.53;;;16.65;82.35
71344;BME280;59146;43.850;25.948;2023-09-19T02:21:19;101435.41;;;17.00;82.68
71344;BME280;59146;43.850;25.948;2023-09-19T02:23:47;101382.50;;;16.78;83.28
71344;BME280;59146;43.850;25.948;2023-09-19T02:26:12;101367.09;;;16.72;84.03
71344;BME280;59146;43.850;25.948;2023-09-19T02:28:39;101400.34;;;16.98;82.99
71344;BME280;59146;43.850;25.948;2023-09-19T02:31:04;101414.56;;;17.08;76.69
71344;BME280;59146;43.850;25.948;2023-09-19T02:33:32;101393.09;;;16.89;76.09
71344;BME280;59146;43.850;25.948;2023-09-19T02:35:59;101361.53;;;16.63;75.91
71344;BME280;59146;43.850;25.948;2023-09-19T02:38:25;101395.00;;;16.87;75.51
71344;BME280;59146;43.850;25.948;2023-09-19T02:40:52;101429.06;;;17.02;74.66
71344;BME280;59146;43.850;25.948;2023-09-19T02:43:17;101420.75;;;16.96;74.31
71344;BME280;59146;43.850;25.948;2023-09-19T02:45:45;101437.34;;;16.85;75.16
71344;BME280;59146;43.850;25.948;2023-09-19T02:48:12;101384.66;;;16.47;77.17
71344;BME280;59146;43.850;25.948;2023-09-19T02:50:37;101324.53;;;15.91;79.78
71344;BME280;59146;43.850;25.948;2023-09-19T02:53:04;101381.84;;;16.25;82.71
71344;BME280;59146;43.850;25.948;2023-09-19T02:55:30;101438.69;;;16.54;83.94
71344;BME280;59146;43.850;25.948;2023-09-19T02:57:55;101416.53;;;16.19;84.21
71344;BME280;59146;43.850;25.948;2023-09-19T03:00:22;101444.47;;;15.97;86.33
71344;BME280;59146;43.850;25.948;2023-09-19T03:02:49;101404.84;;;15.73;87.05
71344;BME280;59146;43.850;25.948;2023-09-19T03:05:14;101435.81;;;15.95;86.96
71344;BME280;59146;43.850;25.948;2023-09-19T03:07:40;101370.09;;;15.41;87.67
71344;BME280;59146;43.850;25.948;2023-09-19T03:10:08;101399.19;;;15.52;88.28
71344;BME280;59146;43.850;25.948;2023-09-19T03:12:34;101377.22;;;15.27;89.18
71344;BME280;59146;43.850;25.948;2023-09-19T03:15:00;101344.91;;;14.98;89.95
71344;BME280;59146;43.850;25.948;2023-09-19T03:17:25;101383.09;;;15.18;89.85
71344;BME280;59146;43.850;25.948;2023-09-19T03:19:51;101379.91;;;15.12;90.98
71344;BME280;59146;43.850;25.948;2023-09-19T03:22:16;101421.78;;;15.42;90.09
71344;BME280;59146;43.850;25.948;2023-09-19T03:24:43;101455.91;;;15.58;90.22
71344;BME280;59146;43.850;25.948;2023-09-19T03:27:12;101432.44;;;15.41;90.47
71344;BME280;59146;43.850;25.948;2023-09-19T03:29:39;101420.69;;;15.46;90.22
71344;BME280;59146;43.850;25.948;2023-09-19T03:32:05;101347.06;;;15.05;90.76
71344;BME280;59146;43.850;25.948;2023-09-19T03:34:31;101443.50;;;15.72;90.86
71344;BME280;59146;43.850;25.948;2023-09-19T03:36:56;101411.31;;;15.55;90.31
71344;BME280;59146;43.850;25.948;2023-09-19T03:39:22;101393.88;;;15.40;89.52
71344;BME280;59146;43.850;25.948;2023-09-19T03:41:48;101440.94;;;15.71;87.32
71344;BME280;59146;43.850;25.948;2023-09-19T03:44:13;101403.38;;;15.42;86.06
71344;BME280;59146;43.850;25.948;2023-09-19T03:46:38;101394.63;;;15.42;85.63
71344;BME280;59146;43.850;25.948;2023-09-19T03:49:04;101291.19;;;14.75;84.96
71344;BME280;59146;43.850;25.948;2023-09-19T03:51:29;101427.22;;;15.53;84.99
71344;BME280;59146;43.850;25.948;2023-09-19T03:53:55;101452.53;;;15.56;85.94
71344;BME280;59146;43.850;25.948;2023-09-19T03:56:21;101443.75;;;15.43;86.05
71344;BME280;59146;43.850;25.948;2023-09-19T03:58:46;101376.34;;;15.13;86.53
71344;BME280;59146;43.850;25.948;2023-09-19T04:01:12;101392.88;;;15.16;87.18
71344;BME280;59146;43.850;25.948;2023-09-19T04:03:38;101432.09;;;15.33;87.87
71344;BME280;59146;43.850;25.948;2023-09-19T04:06:16;101375.09;;;14.92;88.30
71344;BME280;59146;43.850;25.948;2023-09-19T04:08:42;101452.75;;;15.39;88.44
71344;BME280;59146;43.850;25.948;2023-09-19T04:11:08;101410.22;;;15.05;88.25
71344;BME280;59146;43.850;25.948;2023-09-19T04:13:34;101423.31;;;15.20;87.08
71344;BME280;59146;43.850;25.948;2023-09-19T04:16:00;101463.03;;;15.95;85.22
71344;BME280;59146;43.850;25.948;2023-09-19T04:18:25;101457.59;;;16.85;80.16
71344;BME280;59146;43.850;25.948;2023-09-19T04:20:51;101392.28;;;17.46;74.49
71344;BME280;59146;43.850;25.948;2023-09-19T04:23:17;101465.41;;;18.38;70.50
71344;BME280;59146;43.850;25.948;2023-09-19T04:25:45;101385.81;;;18.18;68.33
71344;BME280;59146;43.850;25.948;2023-09-19T04:28:10;101475.75;;;19.18;66.48
71344;BME280;59146;43.850;25.948;2023-09-19T04:30:37;101397.69;;;19.33;63.58
71344;BME280;59146;43.850;25.948;2023-09-19T04:33:03;101441.41;;;20.42;60.43
71344;BME280;59146;43.850;25.948;2023-09-19T04:35:28;101407.28;;;20.77;57.71
71344;BME280;59146;43.850;25.948;2023-09-19T04:37:57;101419.13;;;21.32;55.19
71344;BME280;59146;43.850;25.948;2023-09-19T04:40:22;101405.38;;;21.75;52.92
71344;BME280;59146;43.850;25.948;2023-09-19T04:42:53;101450.00;;;22.46;50.97
71344;BME280;59146;43.850;25.948;2023-09-19T04:45:23;101417.59;;;22.87;49.06
71344;BME280;59146;43.850;25.948;2023-09-19T04:47:48;101468.28;;;23.76;46.33
71344;BME280;59146;43.850;25.948;2023-09-19T04:50:13;101478.78;;;24.72;44.28
71344;BME280;59146;43.850;25.948;2023-09-19T04:52:45;101422.63;;;24.56;43.16
71344;BME280;59146;43.850;25.948;2023-09-19T04:55:14;101421.84;;;24.71;42.61
71344;BME280;59146;43.850;25.948;2023-09-19T04:57:47;101472.41;;;24.65;42.86
71344;BME280;59146;43.850;25.948;2023-09-19T05:00:14;101335.28;;;23.55;43.75
71344;BME280;59146;43.850;25.948;2023-09-19T05:02:41;101406.69;;;23.43;45.14
71344;BME280;59146;43.850;25.948;2023-09-19T05:05:10;101405.16;;;23.84;44.29
71344;BME280;59146;43.850;25.948;2023-09-19T05:07:38;101392.50;;;24.37;43.15
71344;BME280;59146;43.850;25.948;2023-09-19T05:10:05;101376.69;;;25.02;41.57
71344;BME280;59146;43.850;25.948;2023-09-19T05:12:34;101426.03;;;25.32;41.84
71344;BME280;59146;43.850;25.948;2023-09-19T05:14:59;101435.19;;;26.26;39.87
71344;BME280;59146;43.850;25.948;2023-09-19T05:17:26;101400.19;;;26.35;38.99
71344;BME280;59146;43.850;25.948;2023-09-19T05:19:52;101393.34;;;26.25;39.00
71344;BME280;59146;43.850;25.948;2023-09-19T05:22:18;101412.09;;;26.25;39.90
71344;BME280;59146;43.850;25.948;2023-09-19T05:24:44;101443.44;;;26.63;39.01
71344;BME280;59146;43.850;25.948;2023-09-19T05:27:13;101443.25;;;26.26;39.71
71344;BME280;59146;43.850;25.948;2023-09-19T05:29:42;101432.19;;;26.29;40.16
71344;BME280;59146;43.850;25.948;2023-09-19T05:32:08;101434.81;;;24.92;42.80
71344;BME280;59146;43.850;25.948;2023-09-19T05:34:33;101374.75;;;24.70;42.34
71344;BME280;59146;43.850;25.948;2023-09-19T05:36:58;101380.03;;;23.69;44.86
71344;BME280;59146;43.850;25.948;2023-09-19T05:39:24;101428.53;;;23.12;46.98
71344;BME280;59146;43.850;25.948;2023-09-19T05:41:49;101377.44;;;22.17;49.29
71344;BME280;59146;43.850;25.948;2023-09-19T05:44:15;101359.69;;;21.14;52.19
71344;BME280;59146;43.850;25.948;2023-09-19T05:46:40;101421.06;;;21.11;53.86
71344;BME280;59146;43.850;25.948;2023-09-19T05:49:05;101415.81;;;20.11;57.55
71344;BME280;59146;43.850;25.948;2023-09-19T05:51:31;101396.94;;;20.04;58.22
71344;BME280;59146;43.850;25.948;2023-09-19T05:53:56;101405.84;;;20.03;59.04
71344;BME280;59146;43.850;25.948;2023-09-19T05:56:22;101367.22;;;19.59;60.14
71344;BME280;59146;43.850;25.948;2023-09-19T05:58:48;101328.66;;;19.14;61.79
71344;BME280;59146;43.850;25.948;2023-09-19T06:01:14;101361.59;;;19.21;61.96
71344;BME280;59146;43.850;25.948;2023-09-19T06:03:40;101422.91;;;19.48;61.78
71344;BME280;59146;43.850;25.948;2023-09-19T06:06:05;101396.78;;;19.12;63.61
71344;BME280;59146;43.850;25.948;2023-09-19T06:08:32;101364.13;;;18.91;64.14
71344;BME280;59146;43.850;25.948;2023-09-19T06:10:59;101365.78;;;18.92;64.83
71344;BME280;59146;43.850;25.948;2023-09-19T06:13:24;101389.50;;;19.57;63.84
71344;BME280;59146;43.850;25.948;2023-09-19T06:15:52;101402.06;;;20.26;60.36
71344;BME280;59146;43.850;25.948;2023-09-19T06:18:17;101414.50;;;21.15;57.24
71344;BME280;59146;43.850;25.948;2023-09-19T06:20:48;101396.50;;;22.12;53.58
71344;BME280;59146;43.850;25.948;2023-09-19T06:23:14;101382.16;;;22.87;51.19
71344;BME280;59146;43.850;25.948;2023-09-19T06:25:40;101414.75;;;23.34;51.33
71344;BME280;59146;43.850;25.948;2023-09-19T06:28:06;101348.75;;;23.71;47.83
71344;BME280;59146;43.850;25.948;2023-09-19T06:30:33;101427.09;;;24.21;47.35
71344;BME280;59146;43.850;25.948;2023-09-19T06:33:00;101413.75;;;23.96;48.17
71344;BME280;59146;43.850;25.948;2023-09-19T06:35:26;101412.81;;;23.79;49.22
71344;BME280;59146;43.850;25.948;2023-09-19T06:37:52;101392.09;;;23.99;49.57
71344;BME280;59146;43.850;25.948;2023-09-19T06:40:18;101405.06;;;24.19;49.10
71344;BME280;59146;43.850;25.948;2023-09-19T06:42:50;101348.88;;;23.95;49.59
71344;BME280;59146;43.850;25.948;2023-09-19T06:45:16;101364.94;;;24.29;48.01
71344;BME280;59146;43.850;25.948;2023-09-19T06:47:48;101370.81;;;24.40;48.26
71344;BME280;59146;43.850;25.948;2023-09-19T06:50:22;101398.75;;;24.54;48.63
71344;BME280;59146;43.850;25.948;2023-09-19T06:52:49;101390.84;;;23.85;49.61
71344;BME280;59146;43.850;25.948;2023-09-19T06:55:16;101402.78;;;23.73;51.03
71344;BME280;59146;43.850;25.948;2023-09-19T06:57:42;101354.91;;;22.93;53.08
71344;BME280;59146;43.850;25.948;2023-09-19T07:00:09;101391.56;;;23.17;52.36
71344;BME280;59146;43.850;25.948;2023-09-19T07:05:30;101399.19;;;23.90;51.33
71344;BME280;59146;43.850;25.948;2023-09-19T07:07:56;101403.16;;;24.29;50.13
71344;BME280;59146;43.850;25.948;2023-09-19T07:10:27;101369.88;;;24.58;48.80
71344;BME280;59146;43.850;25.948;2023-09-19T07:13:14;101406.09;;;24.94;48.44
71344;BME280;59146;43.850;25.948;2023-09-19T07:15:42;101377.66;;;24.93;47.43
71344;BME280;59146;43.850;25.948;2023-09-19T07:18:15;101336.50;;;24.62;47.37
71344;BME280;59146;43.850;25.948;2023-09-19T07:20:42;101331.91;;;24.88;46.81
71344;BME280;59146;43.850;25.948;2023-09-19T07:23:20;101396.75;;;25.06;47.74
71344;BME280;59146;43.850;25.948;2023-09-19T07:25:48;101335.63;;;25.03;47.06
71344;BME280;59146;43.850;25.948;2023-09-19T07:28:14;101389.59;;;25.39;47.35
71344;BME280;59146;43.850;25.948;2023-09-19T07:30:40;101370.84;;;24.98;47.96
71344;BME280;59146;43.850;25.948;2023-09-19T07:33:07;101355.31;;;24.44;49.95
71344;BME280;59146;43.850;25.948;2023-09-19T07:35:36;101357.56;;;24.65;49.15
71344;BME280;59146;43.850;25.948;2023-09-19T07:38:02;101317.75;;;24.37;48.35
71344;BME280;59146;43.850;25.948;2023-09-19T07:40:28;101383.84;;;24.93;48.63
71344;BME280;59146;43.850;25.948;2023-09-19T07:42:57;101324.16;;;24.61;48.77
71344;BME280;59146;43.850;25.948;2023-09-19T07:45:29;101360.31;;;24.97;48.72
71344;BME280;59146;43.850;25.948;2023-09-19T07:47:55;101348.63;;;24.90;48.02
71344;BME280;59146;43.850;25.948;2023-09-19T07:50:20;101306.03;;;24.88;47.95
71344;BME280;59146;43.850;25.948;2023-09-19T07:52:47;101310.53;;;25.12;47.84
71344;BME280;59146;43.850;25.948;2023-09-19T07:55:13;101327.75;;;25.26;47.28
71344;BME280;59146;43.850;25.948;2023-09-19T07:57:42;101345.94;;;25.70;46.17
71344;BME280;59146;43.850;25.948;2023-09-19T08:00:08;101328.63;;;25.42;46.47
71344;BME280;59146;43.850;25.948;2023-09-19T08:02:36;101277.31;;;24.90;47.68
71344;BME280;59146;43.850;25.948;2023-09-19T08:05:03;101267.88;;;24.46;47.27
71344;BME280;59146;43.850;25.948;2023-09-19T08:07:34;101292.09;;;24.53;48.58
71344;BME280;59146;43.850;25.948;2023-09-19T08:10:02;101314.56;;;24.84;46.62
71344;BME280;59146;43.850;25.948;2023-09-19T08:12:27;101324.88;;;24.79;46.88
71344;BME280;59146;43.850;25.948;2023-09-19T08:14:53;101328.06;;;24.82;46.99
71344;BME280;59146;43.850;25.948;2023-09-19T08:17:21;101270.38;;;24.48;47.58
71344;BME280;59146;43.850;25.948;2023-09-19T08:19:48;101276.22;;;24.51;46.32
71344;BME280;59146;43.850;25.948;2023-09-19T08:22:14;101321.50;;;24.69;47.13
71344;BME280;59146;43.850;25.948;2023-09-19T08:24:42;101282.56;;;24.42;46.00
71344;BME280;59146;43.850;25.948;2023-09-19T08:27:08;101273.81;;;24.32;47.73
71344;BME280;59146;43.850;25.948;2023-09-19T08:29:36;101325.38;;;24.74;44.64
71344;BME280;59146;43.850;25.948;2023-09-19T08:32:01;101275.81;;;24.80;43.70
71344;BME280;59146;43.850;25.948;2023-09-19T08:34:27;101322.56;;;25.24;42.12
71344;BME280;59146;43.850;25.948;2023-09-19T08:36:53;101277.81;;;25.26;41.43
71344;BME280;59146;43.850;25.948;2023-09-19T08:39:22;101276.28;;;25.40;41.43
71344;BME280;59146;43.850;25.948;2023-09-19T08:41:48;101308.53;;;25.62;39.49
71344;BME280;59146;43.850;25.948;2023-09-19T08:44:13;101292.47;;;25.62;39.33
71344;BME280;59146;43.850;25.948;2023-09-19T08:46:41;101248.69;;;25.39;40.00
71344;BME280;59146;43.850;25.948;2023-09-19T08:49:28;101321.47;;;25.97;37.89
71344;BME280;59146;43.850;25.948;2023-09-19T08:52:10;101305.22;;;26.07;37.78
71344;BME280;59146;43.850;25.948;2023-09-19T08:54:41;101249.50;;;26.02;36.64
71344;BME280;59146;43.850;25.948;2023-09-19T08:57:09;101256.81;;;26.17;36.35
71344;BME280;59146;43.850;25.948;2023-09-19T08:59:41;101262.31;;;26.23;36.73
71344;BME280;59146;43.850;25.948;2023-09-19T09:02:10;101303.63;;;26.59;34.32
71344;BME280;59146;43.850;25.948;2023-09-19T09:04:39;101250.25;;;26.50;29.15
71344;BME280;59146;43.850;25.948;2023-09-19T09:07:10;101291.47;;;26.80;30.50
71344;BME280;59146;43.850;25.948;2023-09-19T09:09:37;101228.41;;;25.69;29.76
71344;BME280;59146;43.850;25.948;2023-09-19T09:12:04;101250.00;;;25.67;30.41
71344;BME280;59146;43.850;25.948;2023-09-19T09:14:30;101228.59;;;25.67;30.69
71344;BME280;59146;43.850;25.948;2023-09-19T09:16:56;101279.69;;;25.88;30.46
71344;BME280;59146;43.850;25.948;2023-09-19T09:19:24;101242.78;;;25.76;30.05
71344;BME280;59146;43.850;25.948;2023-09-19T09:21:51;101273.59;;;26.11;30.83
71344;BME280;59146;43.850;25.948;2023-09-19T09:24:29;101269.72;;;26.44;30.58
71344;BME280;59146;43.850;25.948;2023-09-19T09:26:56;101245.69;;;26.58;29.98
71344;BME280;59146;43.850;25.948;2023-09-19T09:29:58;101259.59;;;27.22;29.99
71344;BME280;59146;43.850;25.948;2023-09-19T09:32:28;101208.53;;;27.01;30.28
71344;BME280;59146;43.850;25.948;2023-09-19T09:34:59;101242.56;;;27.67;29.69
71344;BME280;59146;43.850;25.948;2023-09-19T09:37:25;101262.28;;;28.03;28.88
71344;BME280;59146;43.850;25.948;2023-09-19T09:39:58;101244.06;;;27.84;28.66
71344;BME280;59146;43.850;25.948;2023-09-19T09:42:37;101160.25;;;26.86;29.58
71344;BME280;59146;43.850;25.948;2023-09-19T09:45:21;101278.47;;;27.66;28.52
71344;BME280;59146;43.850;25.948;2023-09-19T09:48:00;101223.56;;;27.83;27.83
71344;BME280;59146;43.850;25.948;2023-09-19T09:50:33;101244.59;;;27.94;28.70
71344;BME280;59146;43.850;25.948;2023-09-19T09:53:21;101267.63;;;27.59;29.52
71344;BME280;59146;43.850;25.948;2023-09-19T09:56:05;101272.34;;;27.42;30.19
71344;BME280;59146;43.850;25.948;2023-09-19T09:58:35;101211.81;;;26.88;29.99
71344;BME280;59146;43.850;25.948;2023-09-19T10:01:03;101257.56;;;27.24;29.85
71344;BME280;59146;43.850;25.948;2023-09-19T10:03:40;101261.53;;;27.65;27.82
71344;BME280;59146;43.850;25.948;2023-09-19T10:06:11;101220.81;;;27.62;27.64
71344;BME280;59146;43.850;25.948;2023-09-19T10:09:05;101224.03;;;27.72;27.24
71344;BME280;59146;43.850;25.948;2023-09-19T10:11:41;101245.41;;;27.80;27.68
71344;BME280;59146;43.850;25.948;2023-09-19T10:14:10;101223.94;;;27.80;28.58
71344;BME280;59146;43.850;25.948;2023-09-19T10:16:40;101229.03;;;28.04;27.73
71344;BME280;59146;43.850;25.948;2023-09-19T10:19:07;101211.44;;;27.87;29.30
71344;BME280;59146;43.850;25.948;2023-09-19T10:21:36;101209.34;;;27.68;29.61
71344;BME280;59146;43.850;25.948;2023-09-19T10:24:03;101217.59;;;27.66;30.19
71344;BME280;59146;43.850;25.948;2023-09-19T10:26:30;101233.50;;;27.68;30.18
71344;BME280;59146;43.850;25.948;2023-09-19T10:28:57;101250.72;;;27.88;30.08
71344;BME280;59146;43.850;25.948;2023-09-19T10:31:27;101223.78;;;27.81;28.50
71344;BME280;59146;43.850;25.948;2023-09-19T10:33:55;101184.19;;;27.69;28.75
71344;BME280;59146;43.850;25.948;2023-09-19T10:36:24;101183.13;;;27.70;28.18
71344;BME280;59146;43.850;25.948;2023-09-19T10:38:52;101225.31;;;28.05;27.21
71344;BME280;59146;43.850;25.948;2023-09-19T10:41:22;101226.91;;;28.35;27.32
71344;BME280;59146;43.850;25.948;2023-09-19T10:43:48;101193.59;;;28.51;26.86
71344;BME280;59146;43.850;25.948;2023-09-19T10:46:14;101195.34;;;28.58;25.83
71344;BME280;59146;43.850;25.948;2023-09-19T10:48:40;101143.00;;;28.33;28.14
71344;BME280;59146;43.850;25.948;2023-09-19T10:51:10;101239.34;;;28.78;26.79
71344;BME280;59146;43.850;25.948;2023-09-19T10:56:17;101191.84;;;28.22;25.30
71344;BME280;59146;43.850;25.948;2023-09-19T10:58:44;101173.16;;;28.14;26.02
71344;BME280;59146;43.850;25.948;2023-09-19T11:01:11;101222.63;;;28.41;29.65
71344;BME280;59146;43.850;25.948;2023-09-19T11:03:43;101143.69;;;27.85;30.85
71344;BME280;59146;43.850;25.948;2023-09-19T11:06:14;101168.13;;;27.90;27.75
71344;BME280;59146;43.850;25.948;2023-09-19T11:09:02;101220.72;;;27.99;27.68
71344;BME280;59146;43.850;25.948;2023-09-19T11:30:34;101213.41;;;27.64;30.44
71344;BME280;59146;43.850;25.948;2023-09-19T11:33:20;101157.50;;;27.09;29.35
71344;BME280;59146;43.850;25.948;2023-09-19T11:36:11;101209.44;;;27.60;29.42
71344;BME280;59146;43.850;25.948;2023-09-19T11:43:52;101201.25;;;28.54;28.69
71344;BME280;59146;43.850;25.948;2023-09-19T11:46:20;101201.22;;;28.68;28.07
71344;BME280;59146;43.850;25.948;2023-09-19T11:48:50;101148.22;;;28.41;27.84
71344;BME280;59146;43.850;25.948;2023-09-19T11:51:23;101167.84;;;28.56;25.45
71344;BME280;59146;43.850;25.948;2023-09-19T11:53:55;101177.81;;;28.62;27.45
71344;BME280;59146;43.850;25.948;2023-09-19T11:56:22;101159.69;;;28.28;27.26
71344;BME280;59146;43.850;25.948;2023-09-19T11:58:50;101138.50;;;27.98;26.29
71344;BME280;59146;43.850;25.948;2023-09-19T12:01:50;101190.69;;;28.10;26.88
71344;BME280;59146;43.850;25.948;2023-09-19T12:04:17;101141.59;;;27.66;26.49
71344;BME280;59146;43.850;25.948;2023-09-19T12:06:56;101144.69;;;27.63;27.93
71344;BME280;59146;43.850;25.948;2023-09-19T12:09:22;101135.34;;;27.59;28.99
71344;BME280;59146;43.850;25.948;2023-09-19T12:11:47;101117.28;;;27.09;27.59
71344;BME280;59146;43.850;25.948;2023-09-19T12:14:24;101175.00;;;27.34;28.57
71344;BME280;59146;43.850;25.948;2023-09-19T12:16:55;101127.75;;;27.04;27.91
71344;BME280;59146;43.850;25.948;2023-09-19T12:19:21;101124.03;;;27.34;29.44
71344;BME280;59146;43.850;25.948;2023-09-19T12:22:03;101120.25;;;27.58;27.80
71344;BME280;59146;43.850;25.948;2023-09-19T12:24:32;101156.91;;;28.01;27.92
71344;BME280;59146;43.850;25.948;2023-09-19T12:27:06;101116.63;;;28.01;27.51
71344;BME280;59146;43.850;25.948;2023-09-19T12:29:41;101119.03;;;28.10;26.80
71344;BME280;59146;43.850;25.948;2023-09-19T12:32:07;101160.81;;;28.19;27.04
71344;BME280;59146;43.850;25.948;2023-09-19T12:34:33;101134.22;;;27.89;27.16
71344;BME280;59146;43.850;25.948;2023-09-19T12:37:08;101099.97;;;27.55;26.67
71344;BME280;59146;43.850;25.948;2023-09-19T12:39:40;101165.00;;;27.72;27.17
71344;BME280;59146;43.850;25.948;2023-09-19T12:42:09;101159.78;;;27.85;27.50
71344;BME280;59146;43.850;25.948;2023-09-19T12:44:37;101115.56;;;27.81;27.55
71344;BME280;59146;43.850;25.948;2023-09-19T12:47:10;101140.38;;;28.18;25.94
71344;BME280;59146;43.850;25.948;2023-09-19T12:49:36;101139.81;;;28.23;25.88
71344;BME280;59146;43.850;25.948;2023-09-19T12:52:01;101111.25;;;28.43;26.41
71344;BME280;59146;43.850;25.948;2023-09-19T12:54:39;101084.66;;;28.48;25.30
71344;BME280;59146;43.850;25.948;2023-09-19T12:57:05;101143.81;;;28.76;24.75
71344;BME280;59146;43.850;25.948;2023-09-19T12:59:30;101152.91;;;28.54;25.77
71344;BME280;59146;43.850;25.948;2023-09-19T13:02:03;101142.88;;;28.62;26.71
71344;BME280;59146;43.850;25.948;2023-09-19T13:04:31;101105.03;;;28.43;26.63
71344;BME280;59146;43.850;25.948;2023-09-19T13:06:58;101144.16;;;28.66;25.80
71344;BME280;59146;43.850;25.948;2023-09-19T13:09:27;101137.41;;;28.77;26.24
71344;BME280;59146;43.850;25.948;2023-09-19T13:12:04;101114.28;;;28.82;25.11
71344;BME280;59146;43.850;25.948;2023-09-19T13:14:32;101131.38;;;29.02;25.47
71344;BME280;59146;43.850;25.948;2023-09-19T13:17:07;101093.28;;;28.92;25.76
71344;BME280;59146;43.850;25.948;2023-09-19T13:19:47;101120.41;;;29.32;24.76
71344;BME280;59146;43.850;25.948;2023-09-19T13:22:45;101132.16;;;29.65;24.94
71344;BME280;59146;43.850;25.948;2023-09-19T13:25:23;101104.16;;;29.53;26.01
71344;BME280;59146;43.850;25.948;2023-09-19T13:27:54;101123.72;;;29.74;26.29
71344;BME280;59146;43.850;25.948;2023-09-19T13:30:22;101128.06;;;29.75;25.86